Time;durP1;ratioP1;P1;durP2;ratioP2;P2;SDS_P1;SDS_P2;PMS_P1;PMS_P2;Temp;Humidity;BMP_temperature;BMP_pressure;BME280_temperature;BME280_humidity;BME280_pressure;Samples;Min_cycle;Max_cycle;Signal;HPM_P1;HPM_P2
2021/06/23 00:00:41;;;;;;;18.67;12.73;;;;;;;17.14;70.02;100551.06;5083024;28;20056;-78
2021/06/23 00:03:08;;;;;;;14.50;12.65;;;;;;;17.13;70.13;100549.41;5080923;28;20048;-78
2021/06/23 00:05:35;;;;;;;15.48;12.02;;;;;;;17.14;69.91;100553.06;5098210;28;20059;-78
2021/06/23 00:08:04;;;;;;;16.90;12.68;;;;;;;17.14;70.33;100562.34;5100751;28;20071;-77
2021/06/23 00:10:31;;;;;;;18.02;12.68;;;;;;;17.13;70.39;100563.50;5093278;28;20107;-78
2021/06/23 00:13:04;;;;;;;16.63;12.18;;;;;;;17.07;70.55;100559.28;5087890;28;20056;-77
2021/06/23 00:15:34;;;;;;;17.55;12.25;;;;;;;17.14;70.44;100564.34;5081443;28;20045;-77
2021/06/23 00:18:02;;;;;;;16.40;12.27;;;;;;;17.14;70.35;100567.97;5079767;28;20067;-77
2021/06/23 00:20:30;;;;;;;16.33;11.80;;;;;;;17.16;70.43;100571.25;5081144;28;20056;-78
2021/06/23 00:22:57;;;;;;;15.27;11.68;;;;;;;17.16;70.36;100576.06;5097417;28;20086;-78
2021/06/23 00:25:26;;;;;;;14.25;10.98;;;;;;;17.17;69.93;100572.88;5096238;28;20048;-77
2021/06/23 00:27:54;;;;;;;17.77;11.75;;;;;;;17.22;69.64;100577.44;5098408;28;20048;-78
2021/06/23 00:30:22;;;;;;;16.42;11.35;;;;;;;17.26;69.58;100572.75;5092068;28;20067;-78
2021/06/23 00:32:51;;;;;;;18.40;11.60;;;;;;;17.27;69.24;100584.81;5083107;28;20044;-78
2021/06/23 00:35:18;;;;;;;13.50;11.63;;;;;;;17.28;69.54;100583.63;5096904;28;20052;-77
2021/06/23 00:37:45;;;;;;;21.13;12.75;;;;;;;17.25;69.75;100577.53;5098031;28;20063;-78
2021/06/23 00:40:14;;;;;;;16.48;12.63;;;;;;;17.28;69.96;100584.44;5096222;28;20055;-77
2021/06/23 00:42:43;;;;;;;14.65;11.98;;;;;;;17.29;69.49;100588.91;5082507;28;20057;-77
2021/06/23 00:45:13;;;;;;;16.02;11.93;;;;;;;17.30;69.28;100586.91;5089354;28;20044;-78
2021/06/23 00:47:44;;;;;;;13.73;11.75;;;;;;;17.26;69.96;100600.91;5077044;28;20056;-78
2021/06/23 00:50:14;;;;;;;16.92;11.32;;;;;;;17.30;69.16;100596.16;5076906;28;20119;-77
2021/06/23 00:52:42;;;;;;;15.38;11.50;;;;;;;17.32;68.90;100599.44;5083918;28;20051;-78
2021/06/23 00:55:20;;;;;;;17.02;11.07;;;;;;;17.33;68.68;100592.66;5082013;28;20060;-77
2021/06/23 00:57:50;;;;;;;15.20;10.95;;;;;;;17.35;67.82;100589.47;5092327;28;20476;-78
2021/06/23 01:00:19;;;;;;;13.77;10.77;;;;;;;17.31;69.05;100586.53;5095547;28;20102;-78
2021/06/23 01:02:48;;;;;;;16.45;12.15;;;;;;;17.31;68.80;100586.53;5087722;28;20048;-78
2021/06/23 01:05:17;;;;;;;13.90;11.37;;;;;;;17.32;68.67;100585.34;5081048;28;20079;-78
2021/06/23 01:07:46;;;;;;;15.00;12.07;;;;;;;17.29;68.67;100577.66;5098372;28;20059;-78
2021/06/23 01:10:15;;;;;;;13.73;11.35;;;;;;;17.29;68.56;100577.66;5080646;28;20048;-78
2021/06/23 01:13:02;;;;;;;17.77;12.07;;;;;;;17.29;68.41;100583.28;5077051;28;20075;-78
2021/06/23 01:15:31;;;;;;;14.88;11.13;;;;;;;17.24;68.52;100575.91;5092394;28;20484;-78
2021/06/23 01:18:00;;;;;;;13.75;11.30;;;;;;;17.24;68.82;100575.91;5081349;28;20053;-78
2021/06/23 01:20:27;;;;;;;;;;;;;;;17.20;68.87;100574.97;5078994;28;20048;-79
2021/06/23 01:22:56;;;;;;;15.82;11.20;;;;;;;17.21;68.53;100581.41;5096039;28;19920;-78
2021/06/23 01:25:23;;;;;;;13.60;10.65;;;;;;;17.22;68.85;100585.88;5080037;28;20060;-78
2021/06/23 01:27:51;;;;;;;16.05;10.85;;;;;;;17.23;69.08;100574.25;5080902;28;20060;-79
2021/06/23 01:30:19;;;;;;;13.05;11.18;;;;;;;17.23;69.20;100573.44;5079836;28;20059;-78
2021/06/23 01:32:47;;;;;;;17.48;11.82;;;;;;;17.24;68.30;100575.09;5081556;28;20508;-77
2021/06/23 01:35:15;;;;;;;16.27;12.95;;;;;;;17.23;68.95;100584.69;5082462;28;20048;-78
2021/06/23 01:37:43;;;;;;;17.73;11.60;;;;;;;17.21;68.47;100592.69;5082662;28;20503;-79
2021/06/23 01:40:13;;;;;;;15.98;11.82;;;;;;;17.23;68.72;100596.78;5087051;28;20049;-77
2021/06/23 01:42:40;;;;;;;15.35;11.18;;;;;;;17.22;67.83;100600.78;5085680;28;20044;-79
2021/06/23 01:45:09;;;;;;;14.93;11.32;;;;;;;17.21;68.40;100603.94;5093435;28;20476;-78
2021/06/23 01:47:36;;;;;;;16.13;11.52;;;;;;;17.23;68.21;100596.78;5082087;28;20057;-79
2021/06/23 01:50:04;;;;;;;14.63;10.82;;;;;;;17.20;68.39;100597.50;5084919;28;20056;-78
2021/06/23 01:52:32;;;;;;;15.75;11.88;;;;;;;17.21;68.52;100598.31;5094084;28;20040;-78
2021/06/23 01:54:59;;;;;;;15.18;10.55;;;;;;;17.21;68.57;100603.94;5101788;28;20052;-79
2021/06/23 01:57:29;;;;;;;17.95;11.25;;;;;;;17.21;68.62;100592.69;5100285;28;20048;-78
2021/06/23 01:59:56;;;;;;;16.10;11.52;;;;;;;17.19;68.51;100595.03;5101021;28;20056;-78
2021/06/23 02:02:29;;;;;;;14.50;11.27;;;;;;;17.10;68.50;100597.19;5086691;28;20056;-77
2021/06/23 02:05:04;;;;;;;12.43;11.07;;;;;;;17.15;68.90;100594.09;5082571;28;20068;-78
2021/06/23 02:07:54;;;;;;;18.52;11.68;;;;;;;17.15;68.49;100602.53;5101367;28;20048;-78
2021/06/23 02:10:41;;;;;;;15.10;11.50;;;;;;;17.13;68.69;100602.91;5094274;28;20474;-78
2021/06/23 02:13:44;;;;;;;13.93;11.80;;;;;;;17.11;68.70;100598.81;5082211;28;20049;-77
2021/06/23 02:16:13;;;;;;;15.07;11.90;;;;;;;17.11;68.09;100596.81;5088324;28;20404;-79
2021/06/23 02:18:41;;;;;;;13.27;11.65;;;;;;;17.12;68.18;100589.19;5098466;28;20063;-78
2021/06/23 02:21:09;;;;;;;16.10;11.40;;;;;;;17.09;68.36;100589.91;5084733;28;20056;-78
2021/06/23 02:23:38;;;;;;;17.52;12.05;;;;;;;17.10;68.34;100588.75;5094659;28;20045;-78
2021/06/23 02:26:05;;;;;;;14.63;11.77;;;;;;;17.09;68.20;100601.16;5079376;28;20049;-78
2021/06/23 02:28:33;;;;;;;15.30;11.18;;;;;;;17.10;68.40;100614.06;5079859;28;20048;-79
2021/06/23 02:31:02;;;;;;;15.00;11.20;;;;;;;17.10;68.22;100616.88;5078747;28;20059;-77
2021/06/23 02:33:31;;;;;;;15.52;11.10;;;;;;;17.11;67.93;100624.13;5083091;28;20515;-79
2021/06/23 02:35:59;;;;;;;16.42;10.80;;;;;;;17.10;68.10;100631.75;5079502;28;20059;-79
2021/06/23 02:38:27;;;;;;;13.98;10.70;;;;;;;17.12;67.97;100628.59;5083257;28;20052;-78
2021/06/23 02:40:55;;;;;;;13.68;11.20;;;;;;;17.09;67.93;100634.94;5083409;28;20055;-79
2021/06/23 02:43:22;;;;;;;12.68;10.43;;;;;;;17.05;67.76;100632.03;5095749;28;20059;-79
2021/06/23 02:45:50;;;;;;;14.88;11.02;;;;;;;17.03;67.21;100625.94;5082294;28;20069;-79
2021/06/23 02:48:20;;;;;;;15.32;10.50;;;;;;;17.06;67.33;100624.41;5079623;28;20044;-79
2021/06/23 02:50:58;;;;;;;16.35;11.02;;;;;;;17.03;67.40;100615.50;5078696;28;20516;-79
2021/06/23 02:53:29;;;;;;;15.18;11.05;;;;;;;17.01;67.07;100617.84;5079744;28;20082;-79
2021/06/23 02:55:57;;;;;;;18.00;11.00;;;;;;;17.04;67.90;100613.47;5080209;28;20067;-78
2021/06/23 02:58:25;;;;;;;17.15;11.98;;;;;;;17.04;67.82;100611.47;5079536;28;20053;-79
2021/06/23 03:00:54;;;;;;;22.45;12.13;;;;;;;17.03;67.62;100612.66;5079129;28;20057;-79
2021/06/23 03:03:21;;;;;;;16.00;11.13;;;;;;;17.05;67.73;100617.94;5096325;28;20059;-79
2021/06/23 03:05:50;;;;;;;17.85;10.52;;;;;;;17.04;67.53;100616.28;5084504;28;20051;-79
2021/06/23 03:08:18;;;;;;;12.52;10.35;;;;;;;17.00;67.62;100621.81;5098034;28;20051;-79
2021/06/23 03:10:45;;;;;;;14.98;12.07;;;;;;;17.01;67.48;100626.28;5097664;28;20063;-78
2021/06/23 03:13:13;;;;;;;16.08;10.40;;;;;;;17.01;67.59;100623.47;5097398;28;20048;-79
2021/06/23 03:15:40;;;;;;;21.77;12.13;;;;;;;16.99;67.22;100623.00;5083137;28;20044;-79
2021/06/23 03:18:07;;;;;;;15.65;10.73;;;;;;;17.01;67.46;100629.09;5079126;28;20048;-78
2021/06/23 03:20:35;;;;;;;14.35;10.20;;;;;;;17.03;67.36;100628.75;5084349;28;20047;-78
2021/06/23 03:23:04;;;;;;;15.88;11.23;;;;;;;17.02;67.53;100629.91;5084196;28;20048;-78
2021/06/23 03:25:31;;;;;;;13.75;11.07;;;;;;;17.02;66.99;100630.72;5096486;28;20063;-77
2021/06/23 03:28:00;;;;;;;14.68;11.35;;;;;;;17.03;66.56;100635.19;5095773;28;20056;-79
2021/06/23 03:30:28;;;;;;;13.35;10.85;;;;;;;17.02;67.10;100635.53;5085811;28;20060;-78
2021/06/23 03:32:56;;;;;;;17.60;12.13;;;;;;;16.99;66.83;100641.88;5082045;28;20056;-78
2021/06/23 03:35:25;;;;;;;17.25;11.45;;;;;;;16.94;66.96;100637.28;5082094;28;20063;-79
2021/06/23 03:37:54;;;;;;;14.50;11.32;;;;;;;16.97;66.93;100630.97;5100452;28;20052;-79
2021/06/23 03:40:24;;;;;;;20.15;11.45;;;;;;;16.91;67.27;100628.75;5103698;28;20119;-78
2021/06/23 03:42:51;;;;;;;17.27;11.65;;;;;;;16.94;66.43;100630.84;5085874;28;20048;-78
2021/06/23 03:45:19;;;;;;;17.25;11.07;;;;;;;16.97;66.47;100636.59;5087646;28;20053;-78
2021/06/23 03:47:47;;;;;;;15.05;10.80;;;;;;;16.90;66.52;100633.53;5083330;28;20457;-79
2021/06/23 03:50:16;;;;;;;14.93;10.43;;;;;;;16.96;66.44;100643.38;5081296;28;20052;-79
2021/06/23 03:52:44;;;;;;;18.90;11.45;;;;;;;16.88;66.50;100644.31;5102911;28;20052;-78
2021/06/23 03:55:20;;;;;;;14.57;10.95;;;;;;;16.96;66.68;100657.47;5101096;28;20056;-78
2021/06/23 03:57:51;;;;;;;15.00;10.45;;;;;;;17.02;65.95;100652.41;5097734;28;20063;-79
2021/06/23 04:00:20;;;;;;;15.25;10.35;;;;;;;17.03;65.06;100663.31;5093376;28;20056;-78
2021/06/23 04:02:48;;;;;;;14.20;10.43;;;;;;;17.04;65.23;100659.31;5089218;28;20052;-78
2021/06/23 04:05:16;;;;;;;15.32;10.70;;;;;;;17.03;65.00;100654.06;5103498;28;20051;-79
2021/06/23 04:07:43;;;;;;;16.63;10.93;;;;;;;17.00;65.01;100652.75;5101711;28;20055;-79
2021/06/23 04:10:11;;;;;;;17.75;10.40;;;;;;;16.97;64.43;100653.47;5102185;28;20051;-79
2021/06/23 04:12:39;;;;;;;14.35;10.30;;;;;;;16.98;64.17;100659.91;5090469;28;20060;-79
2021/06/23 04:15:10;;;;;;;16.42;10.52;;;;;;;17.00;64.30;100649.94;5082002;28;20398;-78
2021/06/23 04:17:37;;;;;;;17.40;10.73;;;;;;;17.00;63.95;100661.19;5082643;28;20053;-78
2021/06/23 04:20:06;;;;;;;17.13;10.32;;;;;;;16.98;63.79;100652.28;5082538;28;20056;-78
2021/06/23 04:22:33;;;;;;;12.73;10.23;;;;;;;17.00;64.10;100658.38;5087735;28;20056;-79
2021/06/23 04:25:01;;;;;;;11.98;9.70;;;;;;;16.97;63.86;100649.84;5080795;28;20065;-78
2021/06/23 04:27:28;;;;;;;17.50;10.60;;;;;;;17.00;63.33;100649.94;5081556;28;20060;-78
2021/06/23 04:29:56;;;;;;;16.98;10.20;;;;;;;17.03;64.10;100640.81;5081715;28;20234;-78
2021/06/23 04:32:25;;;;;;;13.18;9.77;;;;;;;17.04;63.83;100650.88;5097304;28;20056;-78
2021/06/23 04:34:53;;;;;;;15.43;9.60;;;;;;;17.03;62.80;100648.44;5102226;28;20056;-79
2021/06/23 04:37:20;;;;;;;16.63;10.25;;;;;;;17.06;63.26;100641.28;5084652;28;20491;-77
2021/06/23 04:39:47;;;;;;;13.70;10.07;;;;;;;17.07;63.66;100643.72;5089727;28;20062;-77
2021/06/23 04:42:14;;;;;;;16.52;9.82;;;;;;;17.03;63.41;100643.63;5092708;28;20060;-78
2021/06/23 04:44:42;;;;;;;13.45;9.52;;;;;;;17.08;62.90;100639.75;5080782;28;20488;-77
2021/06/23 04:47:09;;;;;;;13.98;9.73;;;;;;;17.12;62.82;100642.69;5081952;28;20049;-78
2021/06/23 04:49:38;;;;;;;13.90;9.30;;;;;;;17.15;63.35;100645.59;5080841;28;20061;-78
2021/06/23 04:52:06;;;;;;;15.88;10.52;;;;;;;17.22;62.50;100645.81;5081324;28;20056;-78
2021/06/23 04:54:33;;;;;;;14.60;9.88;;;;;;;17.27;62.05;100653.19;5088956;28;20059;-78
2021/06/23 04:57:00;;;;;;;14.50;9.68;;;;;;;17.30;62.16;100648.84;5088754;28;20060;-78
2021/06/23 04:59:29;;;;;;;16.25;9.05;;;;;;;17.32;62.19;100650.13;5080588;28;20048;-78
2021/06/23 05:01:57;;;;;;;18.13;10.53;;;;;;;17.37;62.04;100652.69;5079800;28;20066;-78
2021/06/23 05:04:24;;;;;;;13.63;9.52;;;;;;;17.40;61.56;100651.16;5086042;28;20481;-78
2021/06/23 05:06:53;;;;;;;12.57;9.80;;;;;;;17.44;61.58;100647.28;5077938;28;20049;-78
2021/06/23 05:09:21;;;;;;;11.98;8.70;;;;;;;17.46;61.28;100649.72;5083438;28;20045;-78
2021/06/23 05:11:49;;;;;;;16.35;9.38;;;;;;;17.44;61.36;100658.53;5081871;28;20048;-78
2021/06/23 05:14:16;;;;;;;11.82;9.40;;;;;;;17.51;61.67;100657.09;5080074;28;20067;-77
2021/06/23 05:16:50;;;;;;;14.45;9.43;;;;;;;17.59;60.72;100647.69;5081456;28;20412;-78
2021/06/23 05:19:21;;;;;;;13.48;9.02;;;;;;;17.62;60.61;100647.00;5075876;28;20488;-77
2021/06/23 05:21:49;;;;;;;12.88;8.63;;;;;;;17.69;60.58;100650.00;5081588;28;20048;-78
2021/06/23 05:24:19;;;;;;;10.95;9.40;;;;;;;17.71;60.42;100656.09;5087972;28;20055;-78
2021/06/23 05:26:46;;;;;;;14.88;9.05;;;;;;;17.79;60.07;100645.84;5080739;28;20404;-77
2021/06/23 05:29:14;;;;;;;12.57;9.48;;;;;;;17.67;61.15;100652.34;5075013;28;20053;-78
2021/06/23 05:31:41;;;;;;;11.73;9.13;;;;;;;17.83;60.86;100656.09;5080944;28;20056;-78
2021/06/23 05:34:09;;;;;;;11.77;9.15;;;;;;;17.95;60.07;100660.00;5084254;28;20055;-78
2021/06/23 05:36:36;;;;;;;14.35;8.82;;;;;;;17.99;59.13;100655.28;5078967;28;20056;-78
2021/06/23 05:39:05;;;;;;;13.18;8.82;;;;;;;18.01;61.30;100661.38;5074359;28;20048;-72
2021/06/23 05:41:34;;;;;;;14.82;9.10;;;;;;;18.09;61.89;100660.41;5075607;28;20056;-72
2021/06/23 05:44:01;;;;;;;11.90;8.60;;;;;;;18.21;60.03;100651.06;5078904;28;20063;-72
2021/06/23 05:46:29;;;;;;;16.00;8.85;;;;;;;18.14;59.25;100653.69;5085239;28;20062;-72
2021/06/23 05:48:57;;;;;;;13.57;8.60;;;;;;;18.17;59.72;100659.41;5081707;28;20053;-72
2021/06/23 05:51:24;;;;;;;13.65;8.23;;;;;;;18.47;58.43;100670.25;5082441;28;20479;-72
2021/06/23 05:53:54;;;;;;;15.65;10.43;;;;;;;18.62;57.04;100672.25;5090664;28;20063;-79
2021/06/23 05:56:21;;;;;;;13.90;10.05;;;;;;;18.73;56.96;100666.06;5078834;28;20052;-78
2021/06/23 05:58:49;;;;;;;13.30;8.70;;;;;;;18.77;57.20;100672.63;5081073;28;20056;-78
2021/06/23 06:01:17;;;;;;;11.70;8.30;;;;;;;18.74;56.46;100668.53;5081590;28;20056;-80
2021/06/23 06:03:44;;;;;;;13.20;8.60;;;;;;;18.72;56.67;100670.91;5084064;28;20482;-79
2021/06/23 06:06:11;;;;;;;12.80;8.25;;;;;;;18.76;56.53;100673.81;5082290;28;20050;-79
2021/06/23 06:08:39;;;;;;;14.57;7.93;;;;;;;18.97;55.93;100677.19;5081398;28;20044;-80
2021/06/23 06:11:06;;;;;;;13.75;8.27;;;;;;;18.88;56.33;100678.56;5071575;28;20044;-79
2021/06/23 06:13:33;;;;;;;11.00;7.82;;;;;;;19.05;54.86;100684.66;5067211;28;20048;-79
2021/06/23 06:16:02;;;;;;;12.38;8.23;;;;;;;19.21;55.65;100675.31;5069671;28;20056;-80
2021/06/23 06:18:29;;;;;;;15.27;8.43;;;;;;;19.38;54.31;100680.56;5072873;28;20049;-77
2021/06/23 06:20:58;;;;;;;14.95;8.25;;;;;;;19.50;53.48;100676.75;5073260;28;20067;-77
2021/06/23 06:23:26;;;;;;;11.75;7.63;;;;;;;19.57;54.04;100678.91;5073170;28;20048;-79
2021/06/23 06:25:54;;;;;;;12.20;7.90;;;;;;;19.62;53.47;100678.66;5074379;28;20474;-79
2021/06/23 06:28:22;;;;;;;9.95;7.63;;;;;;;19.76;53.22;100684.63;5076061;28;20056;-79
2021/06/23 06:30:50;;;;;;;10.57;7.53;;;;;;;19.90;53.20;100683.28;5075602;28;20080;-78
2021/06/23 06:33:18;;;;;;;11.55;7.78;;;;;;;19.96;52.81;100685.44;5074005;28;20063;-80
2021/06/23 06:35:49;;;;;;;10.35;7.60;;;;;;;20.08;51.97;100699.41;5075409;28;20500;-78
2021/06/23 06:38:16;;;;;;;14.02;7.70;;;;;;;20.07;51.47;100692.13;5075883;28;20052;-79
2021/06/23 06:40:44;;;;;;;9.20;7.22;;;;;;;20.23;51.41;100703.31;5072507;28;20067;-79
2021/06/23 06:43:11;;;;;;;11.18;7.22;;;;;;;20.34;51.32;100694.22;5065811;28;20049;-78
2021/06/23 06:45:41;;;;;;;13.15;7.88;;;;;;;20.51;51.24;100692.91;5071663;28;20071;-79
2021/06/23 06:48:09;;;;;;;12.00;7.75;;;;;;;20.64;51.54;100689.56;5074672;28;20057;-77
2021/06/23 06:50:38;;;;;;;11.73;7.07;;;;;;;20.64;50.66;100689.56;5074700;28;20044;-77
2021/06/23 06:53:07;;;;;;;13.30;8.40;;;;;;;20.64;50.74;100700.88;5075678;28;20067;-77
2021/06/23 06:55:34;;;;;;;11.70;7.57;;;;;;;20.78;50.13;100694.63;5078743;28;20053;-79
2021/06/23 06:58:02;;;;;;;14.25;7.75;;;;;;;20.81;50.05;100693.88;5078280;28;20497;-78
2021/06/23 07:00:29;;;;;;;14.85;8.90;;;;;;;20.73;50.29;100702.66;5079214;28;20052;-77
2021/06/23 07:02:56;;;;;;;10.05;8.00;;;;;;;20.87;50.54;100700.88;5074123;28;20048;-78
2021/06/23 07:05:25;;;;;;;18.10;8.80;;;;;;;21.02;50.17;100699.09;5072204;28;20044;-79
2021/06/23 07:07:54;;;;;;;14.07;8.73;;;;;;;20.98;50.61;100701.03;5079024;28;20052;-77
2021/06/23 07:10:21;;;;;;;11.73;7.93;;;;;;;21.20;49.84;100709.88;5079692;28;20397;-77
2021/06/23 07:12:49;;;;;;;12.90;7.65;;;;;;;21.26;49.55;100705.50;5077839;28;20056;-78
2021/06/23 07:15:17;;;;;;;11.55;8.13;;;;;;;21.36;49.52;100702.03;5072676;28;20048;-77
2021/06/23 07:17:45;;;;;;;11.40;7.80;;;;;;;21.43;49.84;100704.97;5076854;28;20048;-78
2021/06/23 07:20:12;;;;;;;10.60;7.72;;;;;;;21.63;47.90;100707.69;5077036;28;20072;-78
2021/06/23 07:22:40;;;;;;;12.25;7.90;;;;;;;21.67;48.09;100705.69;5076448;28;20045;-77
2021/06/23 07:25:13;;;;;;;11.45;7.97;;;;;;;21.80;48.15;100700.63;5077612;28;20045;-78
2021/06/23 07:27:41;;;;;;;11.05;7.68;;;;;;;21.87;48.75;100706.38;5079451;28;20052;-80
2021/06/23 07:30:11;;;;;;;13.50;9.02;;;;;;;21.94;48.05;100708.47;5078179;28;20053;-78
2021/06/23 07:32:46;;;;;;;11.32;7.50;;;;;;;22.02;47.73;100696.00;5080171;28;20056;-79
2021/06/23 07:37:49;;;;;;;11.05;8.27;;;;;;;21.98;47.97;100709.34;5081245;28;20528;-78
2021/06/23 07:40:20;;;;;;;11.65;7.70;;;;;;;22.10;46.73;100720.41;5077099;28;20056;-78
2021/06/23 07:42:47;;;;;;;12.50;8.15;;;;;;;21.75;47.32;100724.44;5074491;28;20057;-77
2021/06/23 07:45:15;;;;;;;13.05;7.80;;;;;;;22.01;47.72;100719.91;5075160;28;20059;-77
2021/06/23 07:47:43;;;;;;;12.38;8.60;;;;;;;22.17;46.89;100723.34;5080277;28;20048;-79
2021/06/23 07:50:12;;;;;;;11.48;7.70;;;;;;;22.25;47.27;100722.25;5079739;28;20048;-79
2021/06/23 07:52:47;;;;;;;12.45;8.10;;;;;;;22.29;46.77;100728.78;5080277;28;20375;-79
2021/06/23 08:09:07;;;;;;;12.10;8.10;;;;;;;23.19;44.30;100720.28;5079321;28;20059;-80
2021/06/23 08:11:36;;;;;;;11.70;6.97;;;;;;;23.36;44.78;100724.47;5076600;28;20056;-79
2021/06/23 08:14:05;;;;;;;12.27;8.02;;;;;;;23.54;43.14;100716.03;5075464;28;20056;-78
2021/06/23 08:16:33;;;;;;;12.05;9.30;;;;;;;23.59;42.52;100715.69;5074082;28;20051;-80
2021/06/23 08:19:00;;;;;;;12.48;7.65;;;;;;;23.68;42.52;100719.75;5074741;28;20036;-78
2021/06/23 08:21:28;;;;;;;10.95;7.55;;;;;;;23.75;42.73;100719.00;5072958;28;20044;-79
2021/06/23 08:23:55;;;;;;;10.57;7.50;;;;;;;23.96;43.31;100718.31;5077623;28;20044;-79
2021/06/23 08:26:22;;;;;;;9.60;7.22;;;;;;;24.40;42.03;100708.69;5077380;28;20190;-79
2021/06/23 08:28:50;;;;;;;10.27;7.40;;;;;;;24.54;41.44;100710.75;5078290;28;20049;-79
2021/06/23 08:31:19;;;;;;;10.40;6.90;;;;;;;24.61;40.73;100710.78;5075680;28;20060;-78
2021/06/23 08:33:46;;;;;;;12.85;7.38;;;;;;;24.23;41.67;100703.75;5059081;28;20056;-78
2021/06/23 08:36:13;;;;;;;11.50;7.78;;;;;;;24.41;41.57;100712.34;5068168;28;20049;-79
2021/06/23 08:38:41;;;;;;;13.75;6.93;;;;;;;24.73;41.95;100708.75;5077253;28;20057;-79
2021/06/23 08:41:08;;;;;;;11.50;7.07;;;;;;;24.88;39.88;100710.38;5078265;28;20052;-77
2021/06/23 08:43:35;;;;;;;9.85;6.95;;;;;;;24.78;40.16;100708.34;5073184;28;20041;-80
2021/06/23 08:46:03;;;;;;;10.25;6.55;;;;;;;24.97;40.33;100710.81;5062875;28;20045;-80
2021/06/23 08:48:33;;;;;;;10.02;7.00;;;;;;;25.11;39.11;100716.50;5078091;28;20061;-78
2021/06/23 08:51:05;;;;;;;14.40;7.45;;;;;;;25.18;39.49;100711.97;5077854;28;20067;-78
2021/06/23 08:53:34;;;;;;;11.68;7.45;;;;;;;25.30;38.93;100720.16;5068199;28;20063;-78
2021/06/23 08:56:02;;;;;;;11.27;7.38;;;;;;;25.44;39.01;100720.13;5070043;28;20055;-79
2021/06/23 08:58:30;;;;;;;12.60;6.88;;;;;;;25.63;38.33;100720.91;5075731;28;20064;-79
2021/06/23 09:00:58;;;;;;;10.87;7.03;;;;;;;25.48;39.35;100718.06;5079066;28;20048;-80
2021/06/23 09:03:25;;;;;;;10.85;6.25;;;;;;;25.61;37.87;100717.63;5075078;28;20055;-79
2021/06/23 09:05:55;;;;;;;12.48;6.70;;;;;;;25.69;37.41;100716.41;5075000;28;20071;-80
2021/06/23 09:08:34;;;;;;;9.30;5.55;;;;;;;25.54;37.86;100717.69;5077312;28;20075;-80
2021/06/23 09:11:03;;;;;;;10.30;5.95;;;;;;;25.58;38.35;100718.47;5076678;28;20055;-79
2021/06/23 09:13:30;;;;;;;;;;;;;;;25.70;38.32;100721.69;5076608;28;20401;-80
2021/06/23 09:16:00;;;;;;;8.57;6.05;;;;;;;25.40;38.26;100727.06;5077217;28;19931;-78
2021/06/23 09:18:29;;;;;;;11.35;5.88;;;;;;;25.68;38.21;100729.03;5076831;28;20053;-79
2021/06/23 09:21:03;;;;;;;9.00;6.20;;;;;;;25.82;38.14;100725.31;5076077;28;20052;-79
2021/06/23 09:23:42;;;;;;;8.43;5.63;;;;;;;25.61;37.72;100729.88;5069983;28;20048;-79
2021/06/23 09:26:19;;;;;;;11.05;5.97;;;;;;;25.82;37.46;100722.47;5096044;28;20056;-80
2021/06/23 09:29:04;;;;;;;7.38;4.95;;;;;;;26.16;36.57;100714.19;5078920;28;20049;-79
2021/06/23 09:31:59;;;;;;;9.93;6.03;;;;;;;26.48;35.96;100719.72;5075613;28;20055;-79
2021/06/23 09:34:28;;;;;;;10.57;6.35;;;;;;;26.63;35.73;100720.47;5063434;28;20056;-78
2021/06/23 09:36:58;;;;;;;9.20;5.50;;;;;;;26.80;34.88;100717.88;5074358;28;20049;-78
2021/06/23 09:39:27;;;;;;;10.88;5.60;;;;;;;26.67;35.79;100720.44;5076103;28;20053;-79
2021/06/23 09:41:55;;;;;;;9.90;5.57;;;;;;;26.62;36.47;100718.81;5076905;28;20055;-78
2021/06/23 09:44:23;;;;;;;10.65;5.22;;;;;;;27.21;34.80;100717.09;5077635;28;20052;-79
2021/06/23 09:46:52;;;;;;;7.63;5.22;;;;;;;27.35;34.83;100714.13;5077081;28;20041;-79
2021/06/23 09:49:21;;;;;;;10.80;6.15;;;;;;;28.00;33.81;100722.00;5077576;28;20442;-78
2021/06/23 09:51:50;;;;;;;7.70;5.50;;;;;;;28.68;32.00;100701.00;5077216;28;20048;-78
2021/06/23 09:54:21;;;;;;;;;;;;;;;28.65;32.69;100714.16;5077874;28;20048;-80
2021/06/23 09:56:50;;;;;;;8.40;5.22;;;;;;;28.78;31.54;100710.69;5049311;28;19924;-81
2021/06/23 09:59:33;;;;;;;10.27;5.82;;;;;;;28.76;31.83;100705.38;5053061;28;20064;-79
2021/06/23 10:02:01;;;;;;;10.40;5.75;;;;;;;29.07;32.57;100706.06;5052006;28;20056;-79
2021/06/23 10:04:32;;;;;;;9.40;4.95;;;;;;;29.52;30.68;100699.94;5063023;28;20685;-78
2021/06/23 10:06:59;;;;;;;8.10;4.63;;;;;;;29.42;31.63;100706.69;5053146;28;20060;-79
2021/06/23 10:09:30;;;;;;;6.68;4.97;;;;;;;29.53;30.86;100706.50;5056570;28;20056;-79
2021/06/23 10:12:00;;;;;;;9.38;5.40;;;;;;;29.43;31.42;100711.19;5056404;28;20045;-81
2021/06/23 10:14:29;;;;;;;7.80;5.30;;;;;;;30.21;30.17;100707.94;5058404;28;20045;-81
2021/06/23 10:17:00;;;;;;;9.38;5.10;;;;;;;30.22;30.19;100703.84;5055830;28;20049;-80
2021/06/23 10:19:30;;;;;;;7.93;5.18;;;;;;;30.59;30.32;100701.75;5056185;28;20057;-78
2021/06/23 10:22:00;;;;;;;12.07;5.35;;;;;;;30.18;29.04;100708.84;5056138;28;20052;-78
2021/06/23 10:24:30;;;;;;;6.88;5.40;;;;;;;29.80;29.71;100706.38;5056054;28;20393;-78
2021/06/23 10:26:59;;;;;;;8.90;5.10;;;;;;;29.53;30.90;100710.16;5052693;28;20051;-77
2021/06/23 10:29:31;;;;;;;8.13;5.20;;;;;;;29.80;30.17;100714.16;5052707;28;20057;-78
2021/06/23 10:31:59;;;;;;;9.45;5.50;;;;;;;30.23;29.09;100716.13;5053383;28;20056;-79
2021/06/23 10:34:26;;;;;;;11.02;5.68;;;;;;;30.57;29.10;100712.91;5054247;28;20478;-79
2021/06/23 10:36:56;;;;;;;8.40;4.95;;;;;;;31.01;28.23;100701.97;5050997;28;20400;-79
2021/06/23 10:39:25;;;;;;;8.55;4.88;;;;;;;30.74;28.50;100710.84;5054340;28;20052;-79
2021/06/23 10:41:59;;;;;;;10.27;5.15;;;;;;;30.94;28.33;100702.16;5053838;28;20056;-79
2021/06/23 10:44:28;;;;;;;9.00;6.45;;;;;;;30.73;28.88;100710.03;5054385;28;20060;-78
2021/06/23 10:46:58;;;;;;;8.70;5.50;;;;;;;31.17;28.71;100694.59;5054587;28;20045;-78
2021/06/23 10:49:44;;;;;;;10.20;5.75;;;;;;;30.85;28.23;100704.81;5055351;28;20056;-77
2021/06/23 10:52:33;;;;;;;10.15;5.35;;;;;;;31.45;28.15;100698.78;5050134;28;20052;-78
2021/06/23 10:55:01;;;;;;;8.98;6.22;;;;;;;31.23;27.97;100696.47;5053895;28;20064;-78
2021/06/23 10:57:32;;;;;;;8.35;5.25;;;;;;;31.11;28.46;100700.88;5053310;28;20064;-77
2021/06/23 11:00:01;;;;;;;9.85;5.72;;;;;;;31.31;28.34;100691.31;5052265;28;20056;-80
2021/06/23 11:02:31;;;;;;;7.70;5.22;;;;;;;31.23;28.99;100704.31;5055866;28;20053;-77
2021/06/23 11:05:11;;;;;;;8.05;5.53;;;;;;;31.24;28.30;100697.28;5054725;28;20060;-79
2021/06/23 11:07:41;;;;;;;9.57;5.38;;;;;;;31.29;29.39;100708.22;5052596;28;20056;-80
2021/06/23 11:10:34;;;;;;;9.70;5.90;;;;;;;31.16;28.14;100696.66;5055608;28;20057;-79
2021/06/23 11:13:05;;;;;;;11.32;5.93;;;;;;;30.61;29.27;100716.50;5053046;28;20060;-78
2021/06/23 11:15:38;;;;;;;8.02;5.30;;;;;;;30.50;29.44;100715.97;5053435;28;20049;-78
2021/06/23 11:18:41;;;;;;;12.52;5.63;;;;;;;30.55;29.64;100724.03;5055992;28;20053;-79
2021/06/23 11:21:18;;;;;;;7.82;6.13;;;;;;;30.58;28.57;100714.53;5052965;28;20052;-79
2021/06/23 11:23:51;;;;;;;10.13;6.82;;;;;;;30.29;28.77;100723.00;5052551;28;20497;-79
2021/06/23 11:27:02;;;;;;;9.82;6.05;;;;;;;30.05;29.96;100719.38;5053807;28;20370;-80
2021/06/23 11:29:33;;;;;;;9.20;5.88;;;;;;;29.98;30.21;100728.16;5056910;28;20049;-78
2021/06/23 11:32:05;;;;;;;9.57;6.47;;;;;;;29.59;30.43;100721.97;5053683;28;20128;-81
2021/06/23 11:34:57;;;;;;;10.52;6.43;;;;;;;29.90;30.76;100716.84;5055595;28;20401;-82
2021/06/23 11:37:36;;;;;;;11.57;7.07;;;;;;;31.26;28.27;100707.06;5050383;28;20045;-80
2021/06/23 11:40:20;;;;;;;10.48;5.60;;;;;;;31.35;28.87;100715.06;5055516;28;20393;-80
2021/06/23 11:42:47;;;;;;;7.88;5.68;;;;;;;31.50;28.06;100715.53;5053455;28;20044;-79
2021/06/23 11:45:18;;;;;;;10.02;6.10;;;;;;;30.98;29.13;100714.41;5056936;28;20053;-78